sensor_id;sensor_type;location;lat;lon;timestamp;temperature;humidity
5560;DHT22;2803;47.916;8.074;2023-12-20T00:01:08;8.70;99.90
5560;DHT22;2803;47.916;8.074;2023-12-20T00:03:35;8.60;99.90
5560;DHT22;2803;47.916;8.074;2023-12-20T00:06:01;8.40;99.90
5560;DHT22;2803;47.916;8.074;2023-12-20T00:08:28;8.70;99.90
5560;DHT22;2803;47.916;8.074;2023-12-20T00:10:56;8.50;99.90
5560;DHT22;2803;47.916;8.074;2023-12-20T00:13:22;8.80;99.90
5560;DHT22;2803;47.916;8.074;2023-12-20T00:15:49;9.20;99.90
5560;DHT22;2803;47.916;8.074;2023-12-20T00:18:16;9.00;99.90
5560;DHT22;2803;47.916;8.074;2023-12-20T00:20:42;8.90;99.90
5560;DHT22;2803;47.916;8.074;2023-12-20T00:23:09;8.70;99.90
5560;DHT22;2803;47.916;8.074;2023-12-20T00:25:35;8.80;99.90
5560;DHT22;2803;47.916;8.074;2023-12-20T00:28:03;8.70;99.90
5560;DHT22;2803;47.916;8.074;2023-12-20T00:30:30;8.40;99.90
5560;DHT22;2803;47.916;8.074;2023-12-20T00:32:56;8.40;99.90
5560;DHT22;2803;47.916;8.074;2023-12-20T00:35:23;8.20;99.90
5560;DHT22;2803;47.916;8.074;2023-12-20T00:37:50;8.20;99.90
5560;DHT22;2803;47.916;8.074;2023-12-20T00:40:16;8.40;99.90
5560;DHT22;2803;47.916;8.074;2023-12-20T00:42:43;7.90;99.90
5560;DHT22;2803;47.916;8.074;2023-12-20T00:45:13;7.60;99.90
5560;DHT22;2803;47.916;8.074;2023-12-20T00:47:40;7.90;99.90
5560;DHT22;2803;47.916;8.074;2023-12-20T00:50:07;8.00;99.90
5560;DHT22;2803;47.916;8.074;2023-12-20T00:52:34;7.70;99.90
5560;DHT22;2803;47.916;8.074;2023-12-20T00:55:01;7.80;99.90
5560;DHT22;2803;47.916;8.074;2023-12-20T00:57:28;8.20;99.90
5560;DHT22;2803;47.916;8.074;2023-12-20T00:59:54;8.10;99.90
5560;DHT22;2803;47.916;8.074;2023-12-20T01:02:22;8.10;99.90
5560;DHT22;2803;47.916;8.074;2023-12-20T01:04:49;7.90;99.90
5560;DHT22;2803;47.916;8.074;2023-12-20T01:07:15;7.90;99.90
5560;DHT22;2803;47.916;8.074;2023-12-20T01:09:42;7.80;99.90
5560;DHT22;2803;47.916;8.074;2023-12-20T01:12:09;7.70;99.90
5560;DHT22;2803;47.916;8.074;2023-12-20T01:14:35;7.70;99.90
5560;DHT22;2803;47.916;8.074;2023-12-20T01:17:02;8.10;99.90
5560;DHT22;2803;47.916;8.074;2023-12-20T01:19:30;7.80;99.90
5560;DHT22;2803;47.916;8.074;2023-12-20T01:21:56;7.90;99.90
5560;DHT22;2803;47.916;8.074;2023-12-20T01:24:23;8.20;99.90
5560;DHT22;2803;47.916;8.074;2023-12-20T01:26:50;8.10;99.90
5560;DHT22;2803;47.916;8.074;2023-12-20T01:29:16;8.20;99.90
5560;DHT22;2803;47.916;8.074;2023-12-20T01:31:43;7.90;99.90
5560;DHT22;2803;47.916;8.074;2023-12-20T01:34:09;7.80;99.90
5560;DHT22;2803;47.916;8.074;2023-12-20T01:36:37;7.70;99.90
5560;DHT22;2803;47.916;8.074;2023-12-20T01:39:04;7.50;99.90
5560;DHT22;2803;47.916;8.074;2023-12-20T01:41:30;7.70;99.90
5560;DHT22;2803;47.916;8.074;2023-12-20T01:43:57;7.70;99.90
5560;DHT22;2803;47.916;8.074;2023-12-20T01:46:24;7.90;99.90
5560;DHT22;2803;47.916;8.074;2023-12-20T01:48:52;7.60;99.90
5560;DHT22;2803;47.916;8.074;2023-12-20T01:51:19;7.50;99.90
5560;DHT22;2803;47.916;8.074;2023-12-20T01:53:48;7.50;99.90
5560;DHT22;2803;47.916;8.074;2023-12-20T01:56:15;7.40;99.90
5560;DHT22;2803;47.916;8.074;2023-12-20T01:58:44;7.00;99.90
5560;DHT22;2803;47.916;8.074;2023-12-20T02:01:11;7.10;99.90
5560;DHT22;2803;47.916;8.074;2023-12-20T02:03:38;6.90;99.90
5560;DHT22;2803;47.916;8.074;2023-12-20T02:06:05;7.00;99.90
5560;DHT22;2803;47.916;8.074;2023-12-20T02:08:32;7.00;99.90
5560;DHT22;2803;47.916;8.074;2023-12-20T02:11:00;7.10;99.90
5560;DHT22;2803;47.916;8.074;2023-12-20T02:13:27;7.30;99.90
5560;DHT22;2803;47.916;8.074;2023-12-20T02:15:54;7.00;99.90
5560;DHT22;2803;47.916;8.074;2023-12-20T02:18:21;7.00;99.90
5560;DHT22;2803;47.916;8.074;2023-12-20T02:20:48;7.30;99.90
5560;DHT22;2803;47.916;8.074;2023-12-20T02:23:16;7.50;99.90
5560;DHT22;2803;47.916;8.074;2023-12-20T02:25:43;7.70;99.90
5560;DHT22;2803;47.916;8.074;2023-12-20T02:28:09;8.00;99.90
5560;DHT22;2803;47.916;8.074;2023-12-20T02:30:36;8.20;99.90
5560;DHT22;2803;47.916;8.074;2023-12-20T02:33:04;8.60;99.90
5560;DHT22;2803;47.916;8.074;2023-12-20T02:35:34;8.60;99.90
5560;DHT22;2803;47.916;8.074;2023-12-20T02:38:00;8.70;99.90
5560;DHT22;2803;47.916;8.074;2023-12-20T02:40:28;9.10;99.90
5560;DHT22;2803;47.916;8.074;2023-12-20T02:42:55;9.20;99.90
5560;DHT22;2803;47.916;8.074;2023-12-20T02:45:21;9.00;99.90
5560;DHT22;2803;47.916;8.074;2023-12-20T02:47:48;9.00;99.90
5560;DHT22;2803;47.916;8.074;2023-12-20T02:50:14;9.10;99.90
5560;DHT22;2803;47.916;8.074;2023-12-20T02:52:44;9.20;99.90
5560;DHT22;2803;47.916;8.074;2023-12-20T02:55:11;9.10;99.90
5560;DHT22;2803;47.916;8.074;2023-12-20T02:57:39;9.00;99.90
5560;DHT22;2803;47.916;8.074;2023-12-20T03:00:07;8.80;99.90
5560;DHT22;2803;47.916;8.074;2023-12-20T03:02:34;9.00;99.90
5560;DHT22;2803;47.916;8.074;2023-12-20T03:05:01;9.00;99.90
5560;DHT22;2803;47.916;8.074;2023-12-20T03:07:28;9.20;99.90
5560;DHT22;2803;47.916;8.074;2023-12-20T03:09:54;9.20;99.90
5560;DHT22;2803;47.916;8.074;2023-12-20T03:12:21;9.20;99.90
5560;DHT22;2803;47.916;8.074;2023-12-20T03:14:49;9.10;99.90
5560;DHT22;2803;47.916;8.074;2023-12-20T03:17:16;9.20;99.90
5560;DHT22;2803;47.916;8.074;2023-12-20T03:19:42;9.20;99.90
5560;DHT22;2803;47.916;8.074;2023-12-20T03:22:09;9.30;99.90
5560;DHT22;2803;47.916;8.074;2023-12-20T03:24:35;9.10;99.90
5560;DHT22;2803;47.916;8.074;2023-12-20T03:27:02;9.00;99.90
5560;DHT22;2803;47.916;8.074;2023-12-20T03:29:29;9.10;99.90
5560;DHT22;2803;47.916;8.074;2023-12-20T03:31:57;9.30;99.90
5560;DHT22;2803;47.916;8.074;2023-12-20T03:34:24;9.10;99.90
5560;DHT22;2803;47.916;8.074;2023-12-20T03:36:50;9.10;99.90
5560;DHT22;2803;47.916;8.074;2023-12-20T03:39:17;9.00;99.90
5560;DHT22;2803;47.916;8.074;2023-12-20T03:41:44;8.70;99.90
5560;DHT22;2803;47.916;8.074;2023-12-20T03:44:11;8.70;99.90
5560;DHT22;2803;47.916;8.074;2023-12-20T03:46:37;8.50;99.90
5560;DHT22;2803;47.916;8.074;2023-12-20T03:49:05;8.40;99.90
5560;DHT22;2803;47.916;8.074;2023-12-20T03:51:32;8.40;99.90
5560;DHT22;2803;47.916;8.074;2023-12-20T03:53:58;8.60;99.90
5560;DHT22;2803;47.916;8.074;2023-12-20T03:56:25;8.70;99.90
5560;DHT22;2803;47.916;8.074;2023-12-20T03:58:51;8.90;99.90
5560;DHT22;2803;47.916;8.074;2023-12-20T04:01:18;8.90;99.90
5560;DHT22;2803;47.916;8.074;2023-12-20T04:03:44;8.90;99.90
5560;DHT22;2803;47.916;8.074;2023-12-20T04:06:17;8.70;99.90
5560;DHT22;2803;47.916;8.074;2023-12-20T04:08:44;8.90;99.90
5560;DHT22;2803;47.916;8.074;2023-12-20T04:11:10;8.80;99.90
5560;DHT22;2803;47.916;8.074;2023-12-20T04:13:37;8.80;99.90
5560;DHT22;2803;47.916;8.074;2023-12-20T04:16:04;8.90;99.90
5560;DHT22;2803;47.916;8.074;2023-12-20T04:18:30;9.10;99.90
5560;DHT22;2803;47.916;8.074;2023-12-20T04:20:57;9.10;99.90
5560;DHT22;2803;47.916;8.074;2023-12-20T04:23:25;9.10;99.90
5560;DHT22;2803;47.916;8.074;2023-12-20T04:25:53;9.20;99.90
5560;DHT22;2803;47.916;8.074;2023-12-20T04:28:19;9.00;99.90
5560;DHT22;2803;47.916;8.074;2023-12-20T04:30:46;8.80;99.90
5560;DHT22;2803;47.916;8.074;2023-12-20T04:33:12;9.00;99.90
5560;DHT22;2803;47.916;8.074;2023-12-20T04:35:39;9.00;99.90
5560;DHT22;2803;47.916;8.074;2023-12-20T04:38:08;9.10;99.90
5560;DHT22;2803;47.916;8.074;2023-12-20T04:40:36;9.10;99.90
5560;DHT22;2803;47.916;8.074;2023-12-20T04:43:03;9.10;99.90
5560;DHT22;2803;47.916;8.074;2023-12-20T04:45:29;9.20;99.90
5560;DHT22;2803;47.916;8.074;2023-12-20T04:47:56;9.20;99.90
5560;DHT22;2803;47.916;8.074;2023-12-20T04:50:23;9.30;99.90
5560;DHT22;2803;47.916;8.074;2023-12-20T04:52:49;9.20;99.90
5560;DHT22;2803;47.916;8.074;2023-12-20T04:55:16;9.30;99.90
5560;DHT22;2803;47.916;8.074;2023-12-20T04:57:44;9.30;99.90
5560;DHT22;2803;47.916;8.074;2023-12-20T05:00:11;9.20;99.90
5560;DHT22;2803;47.916;8.074;2023-12-20T05:02:41;9.10;99.90
5560;DHT22;2803;47.916;8.074;2023-12-20T05:05:08;9.10;99.90
5560;DHT22;2803;47.916;8.074;2023-12-20T05:07:34;8.30;99.90
5560;DHT22;2803;47.916;8.074;2023-12-20T05:10:02;8.20;99.90
5560;DHT22;2803;47.916;8.074;2023-12-20T05:12:29;8.30;99.90
5560;DHT22;2803;47.916;8.074;2023-12-20T05:14:58;8.60;99.90
5560;DHT22;2803;47.916;8.074;2023-12-20T05:17:26;8.40;99.90
5560;DHT22;2803;47.916;8.074;2023-12-20T05:19:53;8.60;99.90
5560;DHT22;2803;47.916;8.074;2023-12-20T05:22:19;8.70;99.90
5560;DHT22;2803;47.916;8.074;2023-12-20T05:24:46;8.70;99.90
5560;DHT22;2803;47.916;8.074;2023-12-20T05:27:12;8.70;99.90
5560;DHT22;2803;47.916;8.074;2023-12-20T05:29:39;8.60;99.90
5560;DHT22;2803;47.916;8.074;2023-12-20T05:32:07;8.30;99.90
5560;DHT22;2803;47.916;8.074;2023-12-20T05:34:34;8.30;99.90
5560;DHT22;2803;47.916;8.074;2023-12-20T05:37:00;7.80;99.90
5560;DHT22;2803;47.916;8.074;2023-12-20T05:39:28;8.00;99.90
5560;DHT22;2803;47.916;8.074;2023-12-20T05:41:56;8.30;99.90
5560;DHT22;2803;47.916;8.074;2023-12-20T05:44:22;8.40;99.90
5560;DHT22;2803;47.916;8.074;2023-12-20T05:46:49;8.50;99.90
5560;DHT22;2803;47.916;8.074;2023-12-20T05:49:17;8.60;99.90
5560;DHT22;2803;47.916;8.074;2023-12-20T05:51:43;8.80;99.90
5560;DHT22;2803;47.916;8.074;2023-12-20T05:54:10;8.80;99.90
5560;DHT22;2803;47.916;8.074;2023-12-20T05:56:37;8.70;99.90
5560;DHT22;2803;47.916;8.074;2023-12-20T05:59:03;8.70;99.90
5560;DHT22;2803;47.916;8.074;2023-12-20T06:01:30;8.70;99.90
5560;DHT22;2803;47.916;8.074;2023-12-20T06:03:56;8.80;99.90
5560;DHT22;2803;47.916;8.074;2023-12-20T06:06:24;8.60;99.90
5560;DHT22;2803;47.916;8.074;2023-12-20T06:08:51;8.40;99.90
5560;DHT22;2803;47.916;8.074;2023-12-20T06:11:17;8.50;99.90
5560;DHT22;2803;47.916;8.074;2023-12-20T06:13:44;8.40;99.90
5560;DHT22;2803;47.916;8.074;2023-12-20T06:16:12;8.60;99.90
5560;DHT22;2803;47.916;8.074;2023-12-20T06:18:38;8.80;99.90
5560;DHT22;2803;47.916;8.074;2023-12-20T06:21:05;8.60;99.90
5560;DHT22;2803;47.916;8.074;2023-12-20T06:23:34;8.50;99.90
5560;DHT22;2803;47.916;8.074;2023-12-20T06:26:00;8.80;99.90
5560;DHT22;2803;47.916;8.074;2023-12-20T06:28:28;8.80;99.90
5560;DHT22;2803;47.916;8.074;2023-12-20T06:30:54;8.70;99.90
5560;DHT22;2803;47.916;8.074;2023-12-20T06:33:22;8.80;99.90
5560;DHT22;2803;47.916;8.074;2023-12-20T06:35:49;8.60;99.90
5560;DHT22;2803;47.916;8.074;2023-12-20T06:38:18;8.70;99.90
5560;DHT22;2803;47.916;8.074;2023-12-20T06:40:46;8.40;99.90
5560;DHT22;2803;47.916;8.074;2023-12-20T06:43:12;8.60;99.90
5560;DHT22;2803;47.916;8.074;2023-12-20T06:45:39;8.70;99.90
5560;DHT22;2803;47.916;8.074;2023-12-20T06:48:06;8.60;99.90
5560;DHT22;2803;47.916;8.074;2023-12-20T06:50:34;8.90;99.90
5560;DHT22;2803;47.916;8.074;2023-12-20T06:53:05;8.70;99.90
5560;DHT22;2803;47.916;8.074;2023-12-20T06:55:32;8.60;99.90
5560;DHT22;2803;47.916;8.074;2023-12-20T06:58:00;8.90;99.90
5560;DHT22;2803;47.916;8.074;2023-12-20T07:00:27;9.10;99.90
5560;DHT22;2803;47.916;8.074;2023-12-20T07:02:54;8.60;99.90
5560;DHT22;2803;47.916;8.074;2023-12-20T07:05:21;8.60;99.90
5560;DHT22;2803;47.916;8.074;2023-12-20T07:07:47;8.60;99.90
5560;DHT22;2803;47.916;8.074;2023-12-20T07:10:14;8.70;99.90
5560;DHT22;2803;47.916;8.074;2023-12-20T07:12:41;8.50;99.90
5560;DHT22;2803;47.916;8.074;2023-12-20T07:15:09;7.70;99.90
5560;DHT22;2803;47.916;8.074;2023-12-20T07:17:37;7.90;99.90
5560;DHT22;2803;47.916;8.074;2023-12-20T07:20:04;7.90;99.90
5560;DHT22;2803;47.916;8.074;2023-12-20T07:22:34;8.00;99.90
5560;DHT22;2803;47.916;8.074;2023-12-20T07:25:01;7.80;99.90
5560;DHT22;2803;47.916;8.074;2023-12-20T07:27:27;7.70;99.90
5560;DHT22;2803;47.916;8.074;2023-12-20T07:29:54;7.50;99.90
5560;DHT22;2803;47.916;8.074;2023-12-20T07:32:22;7.20;99.90
5560;DHT22;2803;47.916;8.074;2023-12-20T07:34:49;7.60;99.90
5560;DHT22;2803;47.916;8.074;2023-12-20T07:37:15;7.50;99.90
5560;DHT22;2803;47.916;8.074;2023-12-20T07:39:42;7.50;99.90
5560;DHT22;2803;47.916;8.074;2023-12-20T07:42:09;7.70;99.90
5560;DHT22;2803;47.916;8.074;2023-12-20T07:44:35;7.90;99.90
5560;DHT22;2803;47.916;8.074;2023-12-20T07:47:02;8.10;99.90
5560;DHT22;2803;47.916;8.074;2023-12-20T07:49:30;7.90;99.90
5560;DHT22;2803;47.916;8.074;2023-12-20T07:51:57;7.40;99.90
5560;DHT22;2803;47.916;8.074;2023-12-20T07:54:23;7.40;99.90
5560;DHT22;2803;47.916;8.074;2023-12-20T07:56:50;7.70;99.90
5560;DHT22;2803;47.916;8.074;2023-12-20T07:59:16;7.50;99.90
5560;DHT22;2803;47.916;8.074;2023-12-20T08:01:43;7.30;99.90
5560;DHT22;2803;47.916;8.074;2023-12-20T08:04:10;7.10;99.90
5560;DHT22;2803;47.916;8.074;2023-12-20T08:06:37;7.40;99.90
5560;DHT22;2803;47.916;8.074;2023-12-20T08:09:04;7.30;99.90
5560;DHT22;2803;47.916;8.074;2023-12-20T08:11:31;7.00;99.90
5560;DHT22;2803;47.916;8.074;2023-12-20T08:13:57;6.90;99.90
5560;DHT22;2803;47.916;8.074;2023-12-20T08:16:24;7.00;99.90
5560;DHT22;2803;47.916;8.074;2023-12-20T08:18:51;6.90;99.90
5560;DHT22;2803;47.916;8.074;2023-12-20T08:21:18;6.80;99.90
5560;DHT22;2803;47.916;8.074;2023-12-20T08:23:46;6.90;99.90
5560;DHT22;2803;47.916;8.074;2023-12-20T08:26:18;6.80;99.90
5560;DHT22;2803;47.916;8.074;2023-12-20T08:28:46;7.00;99.90
5560;DHT22;2803;47.916;8.074;2023-12-20T08:31:14;6.80;99.90
5560;DHT22;2803;47.916;8.074;2023-12-20T08:33:41;7.00;99.90
5560;DHT22;2803;47.916;8.074;2023-12-20T08:36:08;7.30;99.90
5560;DHT22;2803;47.916;8.074;2023-12-20T08:38:34;7.10;99.90
5560;DHT22;2803;47.916;8.074;2023-12-20T08:41:02;7.00;99.90
5560;DHT22;2803;47.916;8.074;2023-12-20T08:43:30;6.90;99.90
5560;DHT22;2803;47.916;8.074;2023-12-20T08:45:57;7.00;99.90
5560;DHT22;2803;47.916;8.074;2023-12-20T08:48:23;7.00;99.90
5560;DHT22;2803;47.916;8.074;2023-12-20T08:50:50;6.50;99.90
5560;DHT22;2803;47.916;8.074;2023-12-20T08:53:17;6.30;99.90
5560;DHT22;2803;47.916;8.074;2023-12-20T08:55:44;6.50;99.90
5560;DHT22;2803;47.916;8.074;2023-12-20T08:58:12;6.50;99.90
5560;DHT22;2803;47.916;8.074;2023-12-20T09:00:39;6.50;99.90
5560;DHT22;2803;47.916;8.074;2023-12-20T09:03:05;6.80;99.90
5560;DHT22;2803;47.916;8.074;2023-12-20T09:05:32;7.30;99.90
5560;DHT22;2803;47.916;8.074;2023-12-20T09:07:59;6.70;99.90
5560;DHT22;2803;47.916;8.074;2023-12-20T09:10:25;6.50;99.90
5560;DHT22;2803;47.916;8.074;2023-12-20T09:12:53;6.30;99.90
5560;DHT22;2803;47.916;8.074;2023-12-20T09:15:23;6.00;99.90
5560;DHT22;2803;47.916;8.074;2023-12-20T09:17:49;6.10;99.90
5560;DHT22;2803;47.916;8.074;2023-12-20T09:20:16;5.80;99.90
5560;DHT22;2803;47.916;8.074;2023-12-20T09:22:43;5.60;99.90
5560;DHT22;2803;47.916;8.074;2023-12-20T09:25:10;5.80;99.90
5560;DHT22;2803;47.916;8.074;2023-12-20T09:27:38;5.60;99.90
5560;DHT22;2803;47.916;8.074;2023-12-20T09:30:05;5.60;99.90
5560;DHT22;2803;47.916;8.074;2023-12-20T09:32:33;5.50;99.90
5560;DHT22;2803;47.916;8.074;2023-12-20T09:35:00;5.40;99.90
5560;DHT22;2803;47.916;8.074;2023-12-20T09:37:27;5.20;99.90
5560;DHT22;2803;47.916;8.074;2023-12-20T09:39:54;5.30;99.90
5560;DHT22;2803;47.916;8.074;2023-12-20T09:42:24;5.50;99.90
5560;DHT22;2803;47.916;8.074;2023-12-20T09:44:51;5.70;99.90
5560;DHT22;2803;47.916;8.074;2023-12-20T09:47:20;5.30;99.90
5560;DHT22;2803;47.916;8.074;2023-12-20T09:49:50;5.10;99.90
5560;DHT22;2803;47.916;8.074;2023-12-20T09:52:18;5.20;99.90
5560;DHT22;2803;47.916;8.074;2023-12-20T09:54:45;5.50;99.90
5560;DHT22;2803;47.916;8.074;2023-12-20T09:57:13;5.80;99.90
5560;DHT22;2803;47.916;8.074;2023-12-20T09:59:40;5.80;99.90
5560;DHT22;2803;47.916;8.074;2023-12-20T10:02:11;6.00;99.90
5560;DHT22;2803;47.916;8.074;2023-12-20T10:04:41;6.30;99.90
5560;DHT22;2803;47.916;8.074;2023-12-20T10:07:12;6.20;99.90
5560;DHT22;2803;47.916;8.074;2023-12-20T10:09:39;5.90;99.90
5560;DHT22;2803;47.916;8.074;2023-12-20T10:12:07;5.80;99.90
5560;DHT22;2803;47.916;8.074;2023-12-20T10:14:34;5.80;99.90
5560;DHT22;2803;47.916;8.074;2023-12-20T10:17:02;5.80;99.90
5560;DHT22;2803;47.916;8.074;2023-12-20T10:19:29;5.50;99.90
5560;DHT22;2803;47.916;8.074;2023-12-20T10:21:56;5.40;99.90
5560;DHT22;2803;47.916;8.074;2023-12-20T10:24:25;5.40;99.90
5560;DHT22;2803;47.916;8.074;2023-12-20T10:27:01;5.80;99.90
5560;DHT22;2803;47.916;8.074;2023-12-20T10:29:31;5.50;99.90
5560;DHT22;2803;47.916;8.074;2023-12-20T10:31:58;5.40;99.90
5560;DHT22;2803;47.916;8.074;2023-12-20T10:34:25;5.30;99.90
5560;DHT22;2803;47.916;8.074;2023-12-20T10:36:52;5.50;99.90
5560;DHT22;2803;47.916;8.074;2023-12-20T10:39:19;5.30;99.90
5560;DHT22;2803;47.916;8.074;2023-12-20T10:41:47;5.00;99.90
5560;DHT22;2803;47.916;8.074;2023-12-20T10:44:15;5.30;99.90
5560;DHT22;2803;47.916;8.074;2023-12-20T10:46:41;5.40;99.90
5560;DHT22;2803;47.916;8.074;2023-12-20T10:49:16;5.40;99.90
5560;DHT22;2803;47.916;8.074;2023-12-20T10:51:44;5.70;99.90
5560;DHT22;2803;47.916;8.074;2023-12-20T10:54:12;5.50;99.90
5560;DHT22;2803;47.916;8.074;2023-12-20T10:56:38;5.10;99.90
5560;DHT22;2803;47.916;8.074;2023-12-20T10:59:07;5.00;99.90
5560;DHT22;2803;47.916;8.074;2023-12-20T11:01:38;5.00;99.90
5560;DHT22;2803;47.916;8.074;2023-12-20T11:04:09;5.20;99.90
5560;DHT22;2803;47.916;8.074;2023-12-20T11:06:43;4.80;99.90
5560;DHT22;2803;47.916;8.074;2023-12-20T11:09:16;4.90;99.90
5560;DHT22;2803;47.916;8.074;2023-12-20T11:11:56;4.70;99.90
5560;DHT22;2803;47.916;8.074;2023-12-20T11:14:31;4.80;99.90
5560;DHT22;2803;47.916;8.074;2023-12-20T11:17:08;4.70;99.90
5560;DHT22;2803;47.916;8.074;2023-12-20T11:19:36;4.70;99.90
5560;DHT22;2803;47.916;8.074;2023-12-20T11:22:04;4.50;99.90
5560;DHT22;2803;47.916;8.074;2023-12-20T11:24:31;4.80;99.90
5560;DHT22;2803;47.916;8.074;2023-12-20T11:26:59;5.00;99.90
5560;DHT22;2803;47.916;8.074;2023-12-20T11:29:31;4.70;99.90
5560;DHT22;2803;47.916;8.074;2023-12-20T11:31:57;4.80;99.90
5560;DHT22;2803;47.916;8.074;2023-12-20T11:34:27;5.00;99.90
5560;DHT22;2803;47.916;8.074;2023-12-20T11:36:57;5.20;99.90
5560;DHT22;2803;47.916;8.074;2023-12-20T11:39:25;5.10;99.90
5560;DHT22;2803;47.916;8.074;2023-12-20T11:41:53;5.20;99.90
5560;DHT22;2803;47.916;8.074;2023-12-20T11:44:20;5.20;99.90
5560;DHT22;2803;47.916;8.074;2023-12-20T11:46:48;5.20;99.90
5560;DHT22;2803;47.916;8.074;2023-12-20T11:49:14;5.40;99.90
5560;DHT22;2803;47.916;8.074;2023-12-20T11:51:41;5.60;99.90
5560;DHT22;2803;47.916;8.074;2023-12-20T11:54:09;5.40;99.90
5560;DHT22;2803;47.916;8.074;2023-12-20T11:56:36;5.20;99.90
5560;DHT22;2803;47.916;8.074;2023-12-20T11:59:03;5.10;99.90
5560;DHT22;2803;47.916;8.074;2023-12-20T12:01:31;5.20;99.90
5560;DHT22;2803;47.916;8.074;2023-12-20T12:04:04;5.10;99.90
5560;DHT22;2803;47.916;8.074;2023-12-20T12:06:30;5.40;99.90
5560;DHT22;2803;47.916;8.074;2023-12-20T12:08:58;5.20;99.90
5560;DHT22;2803;47.916;8.074;2023-12-20T12:11:24;5.30;99.90
5560;DHT22;2803;47.916;8.074;2023-12-20T12:13:51;5.30;99.90
5560;DHT22;2803;47.916;8.074;2023-12-20T12:16:19;5.50;99.90
5560;DHT22;2803;47.916;8.074;2023-12-20T12:18:46;5.70;99.90
5560;DHT22;2803;47.916;8.074;2023-12-20T12:21:20;6.00;99.90
5560;DHT22;2803;47.916;8.074;2023-12-20T12:23:46;6.10;99.90
5560;DHT22;2803;47.916;8.074;2023-12-20T12:26:12;5.90;99.90
5560;DHT22;2803;47.916;8.074;2023-12-20T12:28:40;6.10;99.90
5560;DHT22;2803;47.916;8.074;2023-12-20T12:31:08;6.10;99.90
5560;DHT22;2803;47.916;8.074;2023-12-20T12:33:35;6.30;99.90
5560;DHT22;2803;47.916;8.074;2023-12-20T12:36:01;6.50;99.90
5560;DHT22;2803;47.916;8.074;2023-12-20T12:38:31;6.70;99.90
5560;DHT22;2803;47.916;8.074;2023-12-20T12:40:57;6.30;99.90
5560;DHT22;2803;47.916;8.074;2023-12-20T12:43:24;5.90;99.90
5560;DHT22;2803;47.916;8.074;2023-12-20T12:45:51;6.00;99.90
5560;DHT22;2803;47.916;8.074;2023-12-20T12:48:17;6.20;99.90
5560;DHT22;2803;47.916;8.074;2023-12-20T12:50:45;5.70;99.90
5560;DHT22;2803;47.916;8.074;2023-12-20T12:53:12;5.60;99.90
5560;DHT22;2803;47.916;8.074;2023-12-20T12:55:40;5.60;99.90
5560;DHT22;2803;47.916;8.074;2023-12-20T12:58:07;5.80;99.90
5560;DHT22;2803;47.916;8.074;2023-12-20T13:00:33;6.00;99.90
5560;DHT22;2803;47.916;8.074;2023-12-20T13:03:00;6.10;99.90
5560;DHT22;2803;47.916;8.074;2023-12-20T13:05:26;6.00;99.90
5560;DHT22;2803;47.916;8.074;2023-12-20T13:07:53;6.00;99.90
5560;DHT22;2803;47.916;8.074;2023-12-20T13:10:20;6.20;99.90
5560;DHT22;2803;47.916;8.074;2023-12-20T13:12:48;6.20;99.90
5560;DHT22;2803;47.916;8.074;2023-12-20T13:15:14;6.30;99.90
5560;DHT22;2803;47.916;8.074;2023-12-20T13:17:42;6.40;99.90
5560;DHT22;2803;47.916;8.074;2023-12-20T13:20:08;6.70;99.90
5560;DHT22;2803;47.916;8.074;2023-12-20T13:22:35;7.00;99.90
5560;DHT22;2803;47.916;8.074;2023-12-20T13:25:02;6.70;99.90
5560;DHT22;2803;47.916;8.074;2023-12-20T13:27:29;6.20;99.90
5560;DHT22;2803;47.916;8.074;2023-12-20T13:29:57;6.10;99.90
5560;DHT22;2803;47.916;8.074;2023-12-20T13:32:24;6.00;99.90
5560;DHT22;2803;47.916;8.074;2023-12-20T13:34:51;5.80;99.90
5560;DHT22;2803;47.916;8.074;2023-12-20T13:37:17;5.90;99.90
5560;DHT22;2803;47.916;8.074;2023-12-20T13:39:44;6.30;99.90
5560;DHT22;2803;47.916;8.074;2023-12-20T13:42:11;5.90;99.90
5560;DHT22;2803;47.916;8.074;2023-12-20T13:44:38;6.10;99.90
5560;DHT22;2803;47.916;8.074;2023-12-20T13:47:06;6.00;99.90
5560;DHT22;2803;47.916;8.074;2023-12-20T13:49:33;6.10;99.90
5560;DHT22;2803;47.916;8.074;2023-12-20T13:52:00;6.10;99.90
5560;DHT22;2803;47.916;8.074;2023-12-20T13:54:29;6.40;99.90
5560;DHT22;2803;47.916;8.074;2023-12-20T13:56:56;6.40;99.90
5560;DHT22;2803;47.916;8.074;2023-12-20T13:59:23;6.70;99.90
5560;DHT22;2803;47.916;8.074;2023-12-20T14:01:49;6.70;99.90
5560;DHT22;2803;47.916;8.074;2023-12-20T14:04:18;6.80;99.90
5560;DHT22;2803;47.916;8.074;2023-12-20T14:06:44;6.80;99.90
5560;DHT22;2803;47.916;8.074;2023-12-20T14:09:11;6.70;99.90
5560;DHT22;2803;47.916;8.074;2023-12-20T14:11:38;6.70;99.90
5560;DHT22;2803;47.916;8.074;2023-12-20T14:14:06;6.50;99.90
5560;DHT22;2803;47.916;8.074;2023-12-20T14:16:33;6.40;99.90
5560;DHT22;2803;47.916;8.074;2023-12-20T14:19:00;6.40;99.90
5560;DHT22;2803;47.916;8.074;2023-12-20T14:21:29;6.20;99.90
5560;DHT22;2803;47.916;8.074;2023-12-20T14:23:56;6.20;99.90
5560;DHT22;2803;47.916;8.074;2023-12-20T14:26:22;6.20;99.90
5560;DHT22;2803;47.916;8.074;2023-12-20T14:28:49;6.80;99.90
5560;DHT22;2803;47.916;8.074;2023-12-20T14:31:15;6.80;99.90
5560;DHT22;2803;47.916;8.074;2023-12-20T14:33:42;6.60;99.90
5560;DHT22;2803;47.916;8.074;2023-12-20T14:36:09;7.00;99.90
5560;DHT22;2803;47.916;8.074;2023-12-20T14:38:37;7.50;99.90
5560;DHT22;2803;47.916;8.074;2023-12-20T14:41:03;7.70;99.90
5560;DHT22;2803;47.916;8.074;2023-12-20T14:43:33;7.90;99.90
5560;DHT22;2803;47.916;8.074;2023-12-20T14:46:00;8.00;99.90
5560;DHT22;2803;47.916;8.074;2023-12-20T14:48:26;7.90;99.90
5560;DHT22;2803;47.916;8.074;2023-12-20T14:50:53;7.70;99.90
5560;DHT22;2803;47.916;8.074;2023-12-20T14:53:20;7.50;99.90
5560;DHT22;2803;47.916;8.074;2023-12-20T14:55:47;7.70;99.90
5560;DHT22;2803;47.916;8.074;2023-12-20T14:58:16;7.70;99.90
5560;DHT22;2803;47.916;8.074;2023-12-20T15:00:42;7.70;99.90
5560;DHT22;2803;47.916;8.074;2023-12-20T15:03:10;7.80;99.90
5560;DHT22;2803;47.916;8.074;2023-12-20T15:05:37;7.70;99.90
5560;DHT22;2803;47.916;8.074;2023-12-20T15:08:05;7.60;99.90
5560;DHT22;2803;47.916;8.074;2023-12-20T15:10:32;7.30;99.90
5560;DHT22;2803;47.916;8.074;2023-12-20T15:12:59;7.10;99.90
5560;DHT22;2803;47.916;8.074;2023-12-20T15:15:26;6.60;99.90
5560;DHT22;2803;47.916;8.074;2023-12-20T15:17:54;6.60;99.90
5560;DHT22;2803;47.916;8.074;2023-12-20T15:20:20;6.60;99.90
5560;DHT22;2803;47.916;8.074;2023-12-20T15:22:47;6.70;99.90
5560;DHT22;2803;47.916;8.074;2023-12-20T15:25:14;6.90;99.90
5560;DHT22;2803;47.916;8.074;2023-12-20T15:27:46;6.80;99.90
5560;DHT22;2803;47.916;8.074;2023-12-20T15:30:15;6.80;99.90
5560;DHT22;2803;47.916;8.074;2023-12-20T15:32:43;7.10;99.90
5560;DHT22;2803;47.916;8.074;2023-12-20T15:35:10;7.10;99.90
5560;DHT22;2803;47.916;8.074;2023-12-20T15:37:38;7.10;99.90
5560;DHT22;2803;47.916;8.074;2023-12-20T15:40:06;6.60;99.90
5560;DHT22;2803;47.916;8.074;2023-12-20T15:42:35;5.80;99.90
5560;DHT22;2803;47.916;8.074;2023-12-20T15:45:02;5.80;99.90
5560;DHT22;2803;47.916;8.074;2023-12-20T15:47:30;5.60;99.90
5560;DHT22;2803;47.916;8.074;2023-12-20T15:49:56;5.50;99.90
5560;DHT22;2803;47.916;8.074;2023-12-20T15:52:23;5.90;99.90
5560;DHT22;2803;47.916;8.074;2023-12-20T15:54:50;5.60;99.90
5560;DHT22;2803;47.916;8.074;2023-12-20T15:57:17;5.50;99.90
5560;DHT22;2803;47.916;8.074;2023-12-20T15:59:43;5.80;99.90
5560;DHT22;2803;47.916;8.074;2023-12-20T16:02:10;5.80;99.90
5560;DHT22;2803;47.916;8.074;2023-12-20T16:04:38;6.10;99.90
5560;DHT22;2803;47.916;8.074;2023-12-20T16:07:04;6.10;99.90
5560;DHT22;2803;47.916;8.074;2023-12-20T16:09:31;6.50;99.90
5560;DHT22;2803;47.916;8.074;2023-12-20T16:11:57;6.60;99.90
5560;DHT22;2803;47.916;8.074;2023-12-20T16:14:24;6.10;99.90
5560;DHT22;2803;47.916;8.074;2023-12-20T16:16:54;6.10;99.90